Time;durP1;ratioP1;P1;durP2;ratioP2;P2;SDS_P1;SDS_P2;PMS_P1;PMS_P2;Temp;Humidity;BMP_temperature;BMP_pressure;BME280_temperature;BME280_humidity;BME280_pressure;Samples;Min_cycle;Max_cycle;Signal;HPM_P1;HPM_P2
2021/05/04 00:01:49;;;;;;;2.05;0.82;;;;;;;22.34;45.52;98015.22;5036561;28;20312;-61
2021/05/04 00:04:15;;;;;;;2.22;1.00;;;;;;;22.31;45.98;98015.56;5040740;28;20210;-62
2021/05/04 00:06:41;;;;;;;1.90;0.93;;;;;;;22.33;45.55;98016.22;5040565;28;20246;-62
2021/05/04 00:09:08;;;;;;;1.52;1.02;;;;;;;22.31;45.80;98015.56;5039030;28;20214;-62
2021/05/04 00:11:34;;;;;;;2.20;1.08;;;;;;;22.28;45.91;98007.88;5040460;28;20203;-61
2021/05/04 00:14:00;;;;;;;3.78;0.93;;;;;;;22.30;45.62;98012.06;5049470;28;20227;-62
2021/05/04 00:16:27;;;;;;;1.25;0.95;;;;;;;22.30;45.98;98008.56;5034458;28;20330;-61
2021/05/04 00:18:53;;;;;;;4.60;1.10;;;;;;;22.28;46.29;98005.22;5038477;28;20215;-58
2021/05/04 00:21:19;;;;;;;2.72;1.10;;;;;;;22.28;45.74;98006.09;5038463;28;20226;-62
2021/05/04 00:23:45;;;;;;;1.83;0.90;;;;;;;22.29;45.38;98005.06;5044446;28;20195;-59
2021/05/04 00:26:12;;;;;;;0.98;0.77;;;;;;;22.27;45.35;97992.91;5041951;28;20291;-61
2021/05/04 00:28:38;;;;;;;1.40;0.90;;;;;;;22.22;45.79;97992.59;5044065;28;20639;-62
2021/05/04 00:31:05;;;;;;;1.73;0.70;;;;;;;22.27;45.88;97991.06;5034625;28;20211;-63
2021/05/04 00:33:31;;;;;;;1.60;0.82;;;;;;;22.26;45.27;97985.91;5042659;28;20315;-62
2021/05/04 00:35:57;;;;;;;1.75;1.02;;;;;;;22.24;46.17;97980.75;5044142;28;20223;-62
2021/05/04 00:38:24;;;;;;;2.25;1.00;;;;;;;22.24;45.79;97972.78;5045174;28;20203;-57
2021/05/04 00:40:50;;;;;;;0.90;0.65;;;;;;;22.24;45.98;97969.28;5042635;28;20682;-60
2021/05/04 00:43:18;;;;;;;1.48;0.80;;;;;;;22.23;45.81;97965.78;5043020;28;20203;-54
2021/05/04 00:45:44;;;;;;;2.40;1.02;;;;;;;22.22;46.18;97971.28;5043858;28;20204;-63
2021/05/04 00:48:11;;;;;;;2.13;0.80;;;;;;;22.20;45.52;97965.28;5037483;28;20261;-62
2021/05/04 00:50:37;;;;;;;2.05;0.90;;;;;;;22.18;45.27;97971.63;5036950;28;20320;-62
2021/05/04 00:53:03;;;;;;;1.38;0.90;;;;;;;22.22;45.61;97965.97;5041146;28;20252;-64
2021/05/04 00:55:32;;;;;;;1.40;0.90;;;;;;;22.21;45.88;97961.63;5040872;28;20227;-62
2021/05/04 00:57:58;;;;;;;1.73;0.80;;;;;;;22.20;46.36;97960.81;5050168;28;21452;-62
2021/05/04 01:00:25;;;;;;;2.10;0.90;;;;;;;22.20;45.43;97950.16;5042866;28;20207;-63
2021/05/04 01:02:52;;;;;;;1.52;0.93;;;;;;;22.25;45.15;97952.28;5036605;28;20307;-62
2021/05/04 01:05:18;;;;;;;1.73;0.98;;;;;;;22.23;45.51;97947.13;5042765;28;20206;-62
2021/05/04 01:07:45;;;;;;;1.83;0.98;;;;;;;22.20;45.70;97946.66;5032327;28;20565;-62
2021/05/04 01:10:11;;;;;;;3.03;1.02;;;;;;;22.18;45.97;97950.34;5040299;28;20207;-62
2021/05/04 01:12:37;;;;;;;1.88;0.80;;;;;;;22.18;45.89;97937.03;5038022;28;20225;-62
2021/05/04 01:15:04;;;;;;;2.20;0.90;;;;;;;22.17;45.62;97935.34;5040157;28;20333;-62
2021/05/04 01:17:31;;;;;;;1.27;0.73;;;;;;;22.17;45.78;97935.34;5044602;28;20856;-57
2021/05/04 01:19:58;;;;;;;4.00;0.85;;;;;;;22.19;46.03;97935.19;5041558;28;20219;-60
2021/05/04 01:22:24;;;;;;;1.50;0.80;;;;;;;22.18;45.17;97929.03;5039561;28;20199;-62
2021/05/04 01:24:50;;;;;;;2.08;0.90;;;;;;;22.18;44.66;97918.38;5042103;28;20199;-62
2021/05/04 01:27:17;;;;;;;1.70;0.70;;;;;;;22.16;46.21;97915.03;5044732;28;20241;-62
2021/05/04 01:29:43;;;;;;;1.88;0.73;;;;;;;22.16;46.15;97919.53;5048442;28;20814;-63
2021/05/04 01:32:10;;;;;;;2.65;0.70;;;;;;;22.15;45.59;97907.25;5040668;28;20218;-63
2021/05/04 01:34:36;;;;;;;1.67;0.80;;;;;;;22.14;45.73;97903.72;5043588;28;20219;-63
2021/05/04 01:37:03;;;;;;;2.22;1.00;;;;;;;22.14;45.32;97910.91;5042317;28;20232;-63
2021/05/04 01:39:42;;;;;;;1.75;0.70;;;;;;;22.11;45.86;97900.59;5043572;28;20291;-63
2021/05/04 01:42:09;;;;;;;1.80;0.70;;;;;;;22.08;45.63;97893.78;5043988;28;20202;-62
2021/05/04 01:44:35;;;;;;;2.03;1.00;;;;;;;22.09;46.06;97882.13;5047289;28;20518;-60
2021/05/04 01:47:02;;;;;;;2.90;0.93;;;;;;;22.06;46.38;97887.78;5053425;28;20231;-62
2021/05/04 01:49:28;;;;;;;2.03;0.80;;;;;;;22.08;45.70;97885.81;5054472;28;20256;-63
2021/05/04 01:51:56;;;;;;;1.10;0.82;;;;;;;22.06;46.05;97890.44;5041293;28;20229;-62
2021/05/04 01:54:22;;;;;;;2.63;0.70;;;;;;;22.06;45.21;97882.47;5040759;28;20223;-62
2021/05/04 01:56:50;;;;;;;2.97;1.10;;;;;;;22.07;45.34;97883.31;5042248;28;20231;-63
2021/05/04 01:59:16;;;;;;;1.40;1.05;;;;;;;22.04;46.53;97868.50;5037076;28;20204;-58
2021/05/04 02:01:42;;;;;;;3.30;0.90;;;;;;;22.05;46.30;97864.84;5040761;28;20211;-62
2021/05/04 02:04:08;;;;;;;1.98;0.90;;;;;;;22.03;45.77;97866.84;5044694;28;20613;-59
2021/05/04 02:06:34;;;;;;;1.42;0.80;;;;;;;22.03;46.68;97860.69;5043063;28;20234;-62
2021/05/04 02:09:00;;;;;;;1.58;0.80;;;;;;;22.03;45.65;97855.38;5036531;28;20204;-63
2021/05/04 02:11:26;;;;;;;1.92;0.80;;;;;;;22.04;46.23;97846.38;5039892;28;20203;-62
2021/05/04 02:13:53;;;;;;;1.50;0.73;;;;;;;22.03;46.18;97858.03;5045286;28;20240;-63
2021/05/04 02:16:19;;;;;;;2.17;0.77;;;;;;;22.01;45.78;97842.22;5048420;28;20729;-63
2021/05/04 02:18:45;;;;;;;1.38;0.77;;;;;;;22.01;45.71;97842.22;5043063;28;20210;-63
2021/05/04 02:21:11;;;;;;;3.10;0.93;;;;;;;21.99;45.87;97838.91;5037582;28;20203;-62
2021/05/04 02:23:38;;;;;;;1.27;0.70;;;;;;;21.99;45.80;97839.72;5038241;28;20734;-63
2021/05/04 02:26:04;;;;;;;1.90;0.73;;;;;;;21.97;45.68;97830.28;5030750;28;20238;-64
2021/05/04 02:28:30;;;;;;;1.45;0.93;;;;;;;22.01;46.80;97836.09;5036542;28;20944;-64
2021/05/04 02:30:57;;;;;;;1.77;0.80;;;;;;;21.97;46.35;97831.09;5037501;28;20293;-57
2021/05/04 02:33:24;;;;;;;1.08;0.73;;;;;;;21.95;45.79;97826.97;5039036;28;20200;-58
2021/05/04 02:35:50;;;;;;;1.52;0.80;;;;;;;21.95;46.19;97821.66;5042127;28;20230;-60
2021/05/04 02:38:17;;;;;;;2.50;0.88;;;;;;;21.96;46.38;97813.47;5039693;28;20221;-59
2021/05/04 02:40:43;;;;;;;1.88;0.73;;;;;;;21.97;46.65;97809.00;5052099;28;20785;-63
2021/05/04 02:43:09;;;;;;;1.20;0.70;;;;;;;21.95;45.68;97808.34;5042004;28;20223;-63
2021/05/04 02:45:35;;;;;;;1.38;0.90;;;;;;;21.94;46.48;97804.00;5047670;28;20208;-62
2021/05/04 02:48:02;;;;;;;1.60;0.68;;;;;;;21.96;46.96;97794.00;5044359;28;20586;-62
2021/05/04 02:50:28;;;;;;;1.05;0.70;;;;;;;21.92;45.19;97796.19;5039688;28;20200;-62
2021/05/04 02:52:54;;;;;;;8.30;0.90;;;;;;;21.95;46.28;97800.34;5031651;28;20227;-63
2021/05/04 02:55:22;;;;;;;0.70;0.60;;;;;;;21.93;46.61;97779.25;5043470;28;20265;-62
2021/05/04 02:57:48;;;;;;;1.20;0.70;;;;;;;21.93;46.41;97786.38;5039011;28;20277;-62
2021/05/04 03:00:15;;;;;;;1.70;0.88;;;;;;;21.94;46.23;97780.06;5043483;28;20226;-62
2021/05/04 03:02:41;;;;;;;1.08;0.68;;;;;;;21.91;46.54;97770.56;5044838;28;20353;-62
2021/05/04 03:05:09;;;;;;;2.35;0.90;;;;;;;21.92;45.64;97768.75;5041537;28;20195;-60
2021/05/04 03:07:35;;;;;;;1.92;0.68;;;;;;;21.92;45.40;97768.75;5049483;28;20254;-61
2021/05/04 03:10:01;;;;;;;1.27;0.90;;;;;;;21.94;46.31;97766.75;5030692;28;20200;-61
2021/05/04 03:12:27;;;;;;;1.80;0.85;;;;;;;21.93;45.66;97762.41;5040296;28;20721;-60
2021/05/04 03:14:53;;;;;;;0.88;0.52;;;;;;;21.90;45.73;97758.28;5042477;28;20573;-59
2021/05/04 03:17:19;;;;;;;2.60;0.88;;;;;;;21.88;45.87;97757.59;5051109;28;20815;-61
2021/05/04 03:19:45;;;;;;;1.80;1.00;;;;;;;21.87;45.97;97752.50;5047216;28;21759;-61
2021/05/04 03:22:12;;;;;;;1.77;0.77;;;;;;;21.88;45.26;97744.31;5044512;28;20210;-62
2021/05/04 03:24:38;;;;;;;2.90;0.90;;;;;;;21.88;45.50;97741.66;5039368;28;20679;-63
2021/05/04 03:27:05;;;;;;;2.95;0.90;;;;;;;21.87;46.38;97736.53;5037449;28;20768;-61
2021/05/04 03:29:31;;;;;;;1.63;0.80;;;;;;;21.87;45.79;97733.88;5046868;28;20368;-59
2021/05/04 03:31:57;;;;;;;4.60;0.75;;;;;;;21.88;45.81;97724.84;5041841;28;20227;-62
2021/05/04 03:34:23;;;;;;;0.98;0.70;;;;;;;21.86;45.35;97729.53;5039726;28;20242;-62
2021/05/04 03:36:49;;;;;;;2.25;0.93;;;;;;;21.87;45.91;97728.53;5047807;28;20231;-62
2021/05/04 03:39:16;;;;;;;2.20;0.60;;;;;;;21.89;45.35;97726.53;5037784;28;20211;-62
2021/05/04 03:41:42;;;;;;;1.13;0.60;;;;;;;21.94;45.56;97724.16;5046070;28;20732;-62
2021/05/04 03:44:08;;;;;;;1.17;0.80;;;;;;;21.95;45.79;97723.19;5040836;28;20200;-61
2021/05/04 03:46:34;;;;;;;1.58;0.70;;;;;;;21.96;45.45;97722.16;5037360;28;20219;-63
2021/05/04 03:49:00;;;;;;;2.53;0.60;;;;;;;21.97;46.51;97721.97;5044098;28;20222;-63
2021/05/04 03:51:26;;;;;;;1.85;0.80;;;;;;;21.99;46.04;97714.66;5048776;28;20657;-61
2021/05/04 03:53:53;;;;;;;0.88;0.70;;;;;;;22.03;46.30;97717.78;5034278;28;20780;-63
2021/05/04 03:56:20;;;;;;;0.88;0.70;;;;;;;22.02;45.18;97710.00;5039008;28;20234;-62
2021/05/04 03:58:46;;;;;;;2.45;0.80;;;;;;;22.02;45.81;97716.16;5046083;28;20657;-62
2021/05/04 04:01:12;;;;;;;1.75;0.98;;;;;;;22.04;45.92;97706.16;5042740;28;20228;-62
2021/05/04 04:03:38;;;;;;;1.52;0.88;;;;;;;22.05;45.90;97694.50;5048896;28;20542;-61
2021/05/04 04:06:04;;;;;;;1.05;0.70;;;;;;;22.05;46.16;97697.16;5045088;28;20243;-60
2021/05/04 04:08:31;;;;;;;1.45;0.77;;;;;;;22.05;45.31;97689.19;5038104;28;20237;-61
2021/05/04 04:10:57;;;;;;;2.28;0.68;;;;;;;22.10;45.53;97685.97;5043150;28;20207;-59
2021/05/04 04:13:24;;;;;;;2.13;0.75;;;;;;;22.09;45.39;97685.16;5046859;28;20747;-63
2021/05/04 04:15:50;;;;;;;1.88;0.70;;;;;;;22.10;45.65;97681.50;5044280;28;20668;-62
2021/05/04 04:18:16;;;;;;;2.72;0.68;;;;;;;22.10;46.22;97670.84;5046971;28;20199;-60
2021/05/04 04:20:42;;;;;;;3.70;0.70;;;;;;;22.10;45.96;97667.34;5049624;28;20223;-64
2021/05/04 04:23:08;;;;;;;2.25;0.80;;;;;;;22.10;45.79;97670.00;5049753;28;20208;-62
2021/05/04 04:25:34;;;;;;;0.90;0.68;;;;;;;22.11;45.27;97672.47;5045359;28;20233;-64
2021/05/04 04:28:00;;;;;;;3.03;0.73;;;;;;;22.11;45.58;97664.50;5037882;28;20211;-62
2021/05/04 04:30:27;;;;;;;1.63;0.70;;;;;;;22.12;45.49;97662.69;5037510;28;20208;-62
2021/05/04 04:32:53;;;;;;;3.65;0.90;;;;;;;22.12;45.87;97663.50;5048100;28;20211;-62
2021/05/04 04:35:19;;;;;;;1.55;0.98;;;;;;;22.13;45.28;97654.53;5037966;28;20598;-62
2021/05/04 04:37:45;;;;;;;2.35;0.85;;;;;;;22.13;45.86;97657.19;5031073;28;20215;-62
2021/05/04 04:40:12;;;;;;;3.33;0.77;;;;;;;22.14;45.35;97650.03;5036844;28;20208;-63
2021/05/04 04:42:38;;;;;;;1.00;0.77;;;;;;;22.11;45.60;97648.53;5042511;28;20203;-63
2021/05/04 04:45:06;;;;;;;0.68;0.60;;;;;;;22.14;45.71;97647.34;5046246;28;20286;-62
2021/05/04 04:47:33;;;;;;;2.85;0.75;;;;;;;22.14;45.35;97645.53;5047286;28;20263;-64
2021/05/04 04:49:59;;;;;;;4.32;0.80;;;;;;;22.14;45.76;97642.84;5042238;28;20206;-62
2021/05/04 04:52:25;;;;;;;3.78;0.77;;;;;;;22.14;45.64;97645.53;5043053;28;20225;-65
2021/05/04 04:54:52;;;;;;;1.00;0.70;;;;;;;22.15;45.27;97641.03;5047839;28;20227;-64
2021/05/04 04:57:18;;;;;;;2.60;0.65;;;;;;;22.15;45.95;97641.88;5043556;28;20237;-63
2021/05/04 04:59:44;;;;;;;2.83;0.60;;;;;;;22.15;45.94;97639.19;5036871;28;20223;-64
2021/05/04 05:02:10;;;;;;;1.80;0.95;;;;;;;22.13;45.88;97646.53;5035805;28;20198;-62
2021/05/04 05:04:37;;;;;;;1.90;0.80;;;;;;;22.16;46.21;97635.50;5049845;28;20278;-65
2021/05/04 05:07:08;;;;;;;0.50;0.50;;;;;;;22.16;46.15;97638.19;5040802;28;20319;-64
2021/05/04 05:09:35;;;;;;;4.55;0.75;;;;;;;22.14;45.76;97634.88;5040932;28;20213;-61
2021/05/04 05:12:02;;;;;;;4.28;0.65;;;;;;;22.17;45.84;97634.53;5038868;28;20668;-64
2021/05/04 05:14:28;;;;;;;0.65;0.57;;;;;;;22.18;45.47;97627.34;5040736;28;20318;-63
2021/05/04 05:16:54;;;;;;;2.78;0.80;;;;;;;22.15;46.16;97631.22;5041586;28;20227;-61
2021/05/04 05:19:20;;;;;;;1.33;0.65;;;;;;;22.16;45.16;97624.88;5040429;28;20207;-61
2021/05/04 05:21:47;;;;;;;1.17;0.50;;;;;;;22.14;45.72;97618.06;5034272;28;20706;-62
2021/05/04 05:24:13;;;;;;;1.75;0.90;;;;;;;22.15;45.06;97619.75;5032638;28;20204;-61
2021/05/04 05:26:40;;;;;;;1.83;0.70;;;;;;;22.17;44.44;97615.88;5036081;28;20669;-61
2021/05/04 05:29:07;;;;;;;1.77;0.60;;;;;;;22.13;45.37;97611.09;5044336;28;20209;-62
2021/05/04 05:31:34;;;;;;;6.28;1.65;;;;;;;22.14;45.67;97608.25;5033892;28;20282;-61
2021/05/04 05:34:01;;;;;;;16.88;2.28;;;;;;;22.15;45.61;97604.59;5041909;28;20333;-61
2021/05/04 05:36:27;;;;;;;14.30;2.17;;;;;;;22.31;46.93;97608.97;5032132;28;20235;-61
2021/05/04 05:38:54;;;;;;;24.83;2.15;;;;;;;22.38;45.75;97601.09;5033131;28;20235;-63
2021/05/04 05:41:21;;;;;;;18.48;2.28;;;;;;;22.47;46.39;97597.34;5038115;28;20286;-57
2021/05/04 05:43:47;;;;;;;13.85;1.92;;;;;;;22.56;46.41;97590.09;5032549;28;20215;-63
2021/05/04 05:46:13;;;;;;;11.27;1.60;;;;;;;22.60;45.84;97585.25;5030776;28;20224;-62
2021/05/04 05:48:39;;;;;;;11.85;1.80;;;;;;;22.69;45.92;97578.84;5034008;28;20456;-60
2021/05/04 05:51:05;;;;;;;9.75;1.58;;;;;;;22.68;46.05;97582.50;5039129;28;20204;-59
2021/05/04 05:53:31;;;;;;;13.60;1.90;;;;;;;22.73;45.09;97582.78;5036866;28;20292;-60
2021/05/04 05:55:58;;;;;;;11.45;1.70;;;;;;;22.77;45.95;97573.41;5029315;28;20229;-63
2021/05/04 05:58:24;;;;;;;10.57;1.65;;;;;;;22.80;45.82;97580.19;5037652;28;20290;-64
2021/05/04 06:00:51;;;;;;;8.68;1.40;;;;;;;22.83;45.51;97570.03;5040327;28;20255;-64
2021/05/04 06:03:17;;;;;;;10.75;1.58;;;;;;;22.82;44.73;97581.69;5033114;28;20215;-64
2021/05/04 06:05:44;;;;;;;12.38;1.63;;;;;;;22.86;45.42;97566.16;5031182;28;20269;-61
2021/05/04 06:08:10;;;;;;;9.27;1.33;;;;;;;22.88;44.40;97572.13;5030821;28;20208;-63
2021/05/04 06:10:36;;;;;;;9.93;1.58;;;;;;;22.88;45.13;97578.28;5040588;28;20246;-63
2021/05/04 06:13:05;;;;;;;10.18;1.58;;;;;;;22.90;44.41;97576.25;5034885;28;20730;-64
2021/05/04 06:15:32;;;;;;;4.55;1.08;;;;;;;22.89;45.00;97566.59;5032012;28;20723;-58
2021/05/04 06:17:58;;;;;;;11.75;1.75;;;;;;;22.85;46.65;97568.00;5037954;28;20277;-65
2021/05/04 06:20:25;;;;;;;9.48;1.75;;;;;;;22.84;46.57;97565.50;5033163;28;20288;-64
2021/05/04 06:22:51;;;;;;;15.45;2.08;;;;;;;22.87;46.60;97565.16;5026383;28;20210;-62
2021/05/04 06:25:18;;;;;;;13.50;2.17;;;;;;;22.90;46.86;97565.59;5035847;28;20208;-59
2021/05/04 06:27:44;;;;;;;17.20;1.85;;;;;;;22.92;47.01;97557.44;5035516;28;20684;-61
2021/05/04 06:30:13;;;;;;;9.52;1.60;;;;;;;22.97;46.51;97560.38;5035839;28;20332;-62
2021/05/04 06:32:39;;;;;;;16.10;1.60;;;;;;;22.96;45.83;97556.03;5035141;28;20210;-63
2021/05/04 06:35:07;;;;;;;11.88;1.55;;;;;;;22.98;46.28;97540.69;5035486;28;20223;-61
2021/05/04 06:37:34;;;;;;;10.15;1.42;;;;;;;23.00;46.20;97540.50;5034501;28;20281;-62
2021/05/04 06:40:00;;;;;;;8.40;1.35;;;;;;;23.00;45.57;97554.66;5038751;28;20635;-62
2021/05/04 06:42:27;;;;;;;8.55;1.40;;;;;;;23.00;45.29;97546.66;5040476;28;20210;-60
2021/05/04 06:44:53;;;;;;;6.35;1.70;;;;;;;23.02;45.28;97557.16;5042483;28;20203;-62
2021/05/04 06:47:21;;;;;;;5.70;1.02;;;;;;;23.03;45.99;97542.78;5042453;28;20281;-60
2021/05/04 06:49:47;;;;;;;5.80;1.08;;;;;;;23.04;45.65;97547.13;5041719;28;20681;-62
2021/05/04 06:52:13;;;;;;;6.45;1.35;;;;;;;23.07;45.06;97544.13;5040562;28;20268;-63
2021/05/04 06:54:40;;;;;;;2.90;1.33;;;;;;;23.08;45.89;97541.25;5043326;28;20291;-59
2021/05/04 06:57:06;;;;;;;5.65;1.20;;;;;;;23.06;45.02;97531.75;5047948;28;20219;-61
2021/05/04 06:59:32;;;;;;;8.43;1.52;;;;;;;23.07;45.26;97533.44;5042545;28;20349;-62
2021/05/04 07:01:59;;;;;;;3.95;1.13;;;;;;;23.12;45.99;97535.56;5038803;28;20282;-60
2021/05/04 07:04:26;;;;;;;4.70;1.25;;;;;;;23.10;45.30;97522.41;5040217;28;20288;-61
2021/05/04 07:06:52;;;;;;;10.98;1.67;;;;;;;23.04;44.99;97517.78;5035123;28;20322;-62
2021/05/04 07:09:19;;;;;;;7.30;1.40;;;;;;;23.04;44.39;97517.78;5045992;28;20759;-61
2021/05/04 07:11:45;;;;;;;4.00;1.13;;;;;;;23.02;44.86;97515.31;5038940;28;20203;-62
2021/05/04 07:14:11;;;;;;;7.93;1.35;;;;;;;23.03;44.61;97513.47;5041288;28;20211;-63
2021/05/04 07:16:39;;;;;;;3.38;1.13;;;;;;;23.00;45.43;97501.34;5037531;28;20246;-62
2021/05/04 07:19:05;;;;;;;3.75;1.02;;;;;;;23.01;45.23;97507.50;5042534;28;20305;-62
2021/05/04 07:21:33;;;;;;;6.70;1.50;;;;;;;23.02;45.08;97503.84;5043198;28;20289;-61
2021/05/04 07:24:00;;;;;;;4.25;1.23;;;;;;;23.04;44.51;97507.94;5036224;28;20207;-64
2021/05/04 07:26:26;;;;;;;8.25;1.48;;;;;;;23.06;45.64;97505.09;5038363;28;20227;-61
2021/05/04 07:28:53;;;;;;;7.43;1.20;;;;;;;23.07;44.88;97504.13;5036962;28;20215;-62
2021/05/04 07:31:19;;;;;;;10.20;1.48;;;;;;;23.01;44.51;97502.16;5039505;28;20751;-56
2021/05/04 07:33:45;;;;;;;5.88;1.25;;;;;;;23.01;45.37;97491.50;5041810;28;20777;-58
2021/05/04 07:36:11;;;;;;;5.82;1.00;;;;;;;23.01;44.91;97499.50;5040319;28;20267;-61
2021/05/04 07:38:38;;;;;;;4.57;1.02;;;;;;;23.00;44.96;97497.84;5037658;28;20200;-62
2021/05/04 07:41:08;;;;;;;3.53;0.98;;;;;;;22.99;44.92;97490.88;5039593;28;20362;-61
2021/05/04 07:43:34;;;;;;;4.65;1.20;;;;;;;22.99;45.48;97501.53;5038016;28;20208;-59
2021/05/04 07:46:01;;;;;;;4.72;1.40;;;;;;;22.97;45.02;97508.91;5034203;28;20227;-60
2021/05/04 07:48:27;;;;;;;2.55;0.90;;;;;;;22.95;44.79;97493.09;5034779;28;20390;-61
2021/05/04 07:50:53;;;;;;;6.18;1.35;;;;;;;22.94;44.68;97485.28;5034661;28;20215;-62
2021/05/04 07:53:20;;;;;;;6.18;1.45;;;;;;;22.91;44.97;97476.66;5030243;28;20208;-61
2021/05/04 07:55:48;;;;;;;5.25;0.90;;;;;;;22.90;45.07;97475.00;5031879;28;20740;-59
2021/05/04 07:58:14;;;;;;;5.55;1.00;;;;;;;22.88;45.68;97477.03;5039480;28;20303;-60
2021/05/04 08:00:41;;;;;;;5.35;1.20;;;;;;;22.86;45.77;97472.88;5033084;28;20303;-63
2021/05/04 08:03:07;;;;;;;2.58;0.90;;;;;;;22.84;45.65;97475.72;5046245;28;20706;-61
2021/05/04 08:05:33;;;;;;;5.35;1.40;;;;;;;22.84;45.82;97481.06;5037280;28;20733;-58
2021/05/04 08:07:59;;;;;;;5.60;1.55;;;;;;;22.82;45.29;97479.59;5037074;28;20374;-60
2021/05/04 08:10:26;;;;;;;5.90;1.30;;;;;;;22.87;44.99;97470.03;5037761;28;20207;-61
2021/05/04 08:12:53;;;;;;;10.40;1.90;;;;;;;22.90;45.22;97474.19;5045174;28;20250;-59
2021/05/04 08:15:21;;;;;;;10.35;1.10;;;;;;;22.87;45.89;97488.69;5038453;28;20227;-60
2021/05/04 08:17:53;;;;;;;6.65;1.42;;;;;;;22.82;44.66;97477.75;5037663;28;20250;-58
2021/05/04 08:20:20;;;;;;;4.55;1.40;;;;;;;22.82;43.79;97482.28;5043838;28;20246;-62
2021/05/04 08:22:46;;;;;;;7.07;1.15;;;;;;;22.80;45.27;97482.44;5045427;28;20217;-60
2021/05/04 08:25:13;;;;;;;7.15;1.30;;;;;;;22.78;43.72;97481.78;5043342;28;20249;-61
2021/05/04 08:27:40;;;;;;;7.25;1.20;;;;;;;22.77;45.29;97472.16;5040250;28;20227;-59
2021/05/04 08:30:08;;;;;;;9.50;1.10;;;;;;;22.75;44.87;97476.84;5045761;28;20214;-59
2021/05/04 08:32:34;;;;;;;1.98;0.88;;;;;;;22.78;45.16;97483.63;5044428;28;20294;-60
2021/05/04 08:35:00;;;;;;;4.72;1.10;;;;;;;22.79;45.73;97472.78;5039545;28;20283;-55
2021/05/04 08:37:26;;;;;;;7.30;1.25;;;;;;;22.79;45.41;97472.78;5035766;28;20352;-56
2021/05/04 08:39:53;;;;;;;4.57;1.02;;;;;;;22.78;45.02;97473.78;5046403;28;20215;-61
2021/05/04 08:42:19;;;;;;;8.80;1.20;;;;;;;22.77;45.01;97476.69;5037311;28;20375;-59
2021/05/04 08:44:51;;;;;;;2.70;1.00;;;;;;;22.75;44.84;97476.84;5043020;28;20672;-60
2021/05/04 08:47:19;;;;;;;1.80;0.73;;;;;;;22.77;45.55;97468.69;5045220;28;20231;-59
2021/05/04 08:49:46;;;;;;;4.35;1.30;;;;;;;22.78;45.91;97460.47;5044506;28;20204;-62
2021/05/04 08:52:13;;;;;;;5.03;1.30;;;;;;;22.77;45.77;97466.84;5036571;28;20253;-60
2021/05/04 08:54:39;;;;;;;3.90;1.20;;;;;;;22.77;44.78;97471.34;5043252;28;20318;-61
2021/05/04 08:57:05;;;;;;;9.23;1.42;;;;;;;22.78;45.25;97465.81;5035416;28;20251;-61
2021/05/04 08:59:32;;;;;;;5.20;1.30;;;;;;;22.77;45.91;97458.84;5032729;28;20208;-59
2021/05/04 09:01:58;;;;;;;4.13;1.20;;;;;;;22.79;46.02;97451.47;5045310;28;20341;-61
2021/05/04 09:04:27;;;;;;;10.15;1.42;;;;;;;22.76;45.18;97465.16;5034736;28;20717;-63
2021/05/04 09:06:56;;;;;;;5.95;1.00;;;;;;;22.82;45.42;97461.78;5040490;28;20223;-64
2021/05/04 09:09:26;;;;;;;7.15;1.00;;;;;;;22.81;45.08;97469.94;5054921;28;20283;-60
2021/05/04 09:12:03;;;;;;;7.43;0.88;;;;;;;22.82;45.49;97467.09;5043454;28;20195;-58
2021/05/04 09:14:37;;;;;;;2.55;1.10;;;;;;;22.85;45.93;97466.72;5044605;28;20226;-58
2021/05/04 09:17:12;;;;;;;4.72;0.98;;;;;;;22.88;45.43;97471.69;5052255;28;20218;-62
2021/05/04 09:22:36;;;;;;;1.70;0.63;;;;;;;22.92;45.32;97462.28;5045634;28;20247;-58
2021/05/04 09:25:04;;;;;;;5.70;0.95;;;;;;;22.96;45.03;97465.41;5048296;28;20199;-61
2021/05/04 09:27:30;;;;;;;1.90;0.70;;;;;;;23.02;44.90;97480.66;5050743;28;20220;-63
2021/05/04 09:29:58;;;;;;;2.20;0.70;;;;;;;23.03;44.55;97457.50;5049159;28;20271;-58
2021/05/04 09:32:27;;;;;;;2.85;0.80;;;;;;;23.03;44.66;97447.66;5048256;28;20203;-61
2021/05/04 09:34:56;;;;;;;5.75;0.90;;;;;;;23.06;45.04;97436.63;5051668;28;20259;-62
2021/05/04 09:37:28;;;;;;;3.17;0.93;;;;;;;23.07;45.42;97432.16;5051177;28;20560;-59
2021/05/04 09:39:55;;;;;;;3.25;1.15;;;;;;;23.08;44.91;97441.78;5048007;28;20290;-60
2021/05/04 09:42:21;;;;;;;1.48;0.93;;;;;;;23.08;44.90;97447.13;5050324;28;20297;-60
2021/05/04 09:44:48;;;;;;;5.05;1.05;;;;;;;23.10;44.30;97445.09;5052425;28;20291;-64
2021/05/04 09:47:20;;;;;;;1.30;0.80;;;;;;;23.13;44.49;97476.69;5044911;28;20660;-60
2021/05/04 09:49:47;;;;;;;2.95;0.85;;;;;;;23.10;45.16;97458.44;5046497;28;20248;-59
2021/05/04 09:52:29;;;;;;;2.35;0.98;;;;;;;23.12;45.22;97445.75;5045503;28;20210;-60
2021/05/04 09:55:07;;;;;;;1.38;0.80;;;;;;;23.15;45.27;97445.38;5045620;28;20210;-59
2021/05/04 09:57:35;;;;;;;1.35;0.90;;;;;;;23.12;45.30;97432.41;5044038;28;20215;-62
2021/05/04 10:00:06;;;;;;;2.22;0.85;;;;;;;23.11;45.17;97444.06;5047172;28;20445;-63
2021/05/04 10:02:32;;;;;;;4.10;1.10;;;;;;;23.20;44.48;97440.28;5050488;28;21046;-61
2021/05/04 10:05:00;;;;;;;1.88;0.60;;;;;;;23.21;45.16;97444.59;5049411;28;20291;-60
2021/05/04 10:07:29;;;;;;;3.72;0.80;;;;;;;23.21;44.36;97449.09;5045956;28;20215;-66
2021/05/04 10:09:57;;;;;;;1.00;0.70;;;;;;;23.23;45.23;97436.41;5048913;28;20222;-64
2021/05/04 10:12:24;;;;;;;7.35;0.75;;;;;;;23.23;44.79;97463.91;5046986;28;20791;-62
2021/05/04 10:14:51;;;;;;;4.72;1.25;;;;;;;23.21;44.16;97457.91;5050469;28;20313;-58
2021/05/04 10:17:19;;;;;;;5.53;0.98;;;;;;;23.23;44.58;97455.06;5044829;28;20234;-61
2021/05/04 10:19:46;;;;;;;3.30;0.90;;;;;;;23.21;44.58;97436.59;5045843;28;20602;-61
2021/05/04 10:22:13;;;;;;;2.28;1.00;;;;;;;23.19;44.74;97462.63;5046021;28;20232;-62
2021/05/04 10:24:42;;;;;;;3.70;0.93;;;;;;;23.15;45.12;97452.50;5052564;28;20194;-60
2021/05/04 10:27:09;;;;;;;2.22;0.90;;;;;;;23.15;44.57;97456.03;5046101;28;20354;-62
2021/05/04 10:29:37;;;;;;;1.42;0.80;;;;;;;23.16;44.67;97451.50;5041777;28;20207;-62
2021/05/04 10:32:05;;;;;;;6.13;0.82;;;;;;;23.14;44.63;97448.22;5041618;28;20275;-60
2021/05/04 10:34:33;;;;;;;6.28;0.90;;;;;;;23.06;44.53;97451.78;5038565;28;20281;-58
2021/05/04 10:37:00;;;;;;;2.75;1.10;;;;;;;23.04;44.29;97453.81;5037265;28;20300;-58
2021/05/04 10:39:39;;;;;;;2.25;1.00;;;;;;;23.08;44.47;97441.78;5036068;28;20222;-59
2021/05/04 10:42:07;;;;;;;3.03;0.90;;;;;;;22.88;41.08;97442.38;5032949;28;20207;-57
2021/05/04 10:45:05;;;;;;;24.00;1.45;;;;;;;22.96;41.80;97445.94;5042255;28;20204;-58
2021/05/04 10:47:49;;;;;;;14.13;1.20;;;;;;;22.97;42.02;97455.59;5031468;28;20650;-62
2021/05/04 10:50:23;;;;;;;6.40;1.00;;;;;;;23.03;42.86;97442.34;5041441;28;20202;-62
2021/05/04 10:53:01;;;;;;;5.95;1.10;;;;;;;23.06;42.62;97438.47;5046679;28;20310;-59
2021/05/04 10:56:08;;;;;;;9.15;1.25;;;;;;;23.07;42.83;97438.31;5046210;28;20288;-61
2021/05/04 10:58:55;;;;;;;9.20;1.50;;;;;;;23.11;43.46;97433.41;5036684;28;20212;-60
2021/05/04 11:01:21;;;;;;;9.30;0.90;;;;;;;23.11;43.81;97449.41;5045084;28;20281;-62
2021/05/04 11:03:54;;;;;;;5.13;0.88;;;;;;;23.11;43.21;97446.75;5044751;28;20339;-62
2021/05/04 11:06:45;;;;;;;4.72;0.88;;;;;;;23.15;43.98;97433.84;5047466;28;20306;-61
2021/05/04 11:09:16;;;;;;;8.15;1.00;;;;;;;23.18;43.04;97425.47;5052633;28;20238;-64
2021/05/04 11:11:45;;;;;;;6.18;1.10;;;;;;;23.20;42.97;97437.63;5044755;28;20672;-62
2021/05/04 11:14:32;;;;;;;3.50;0.75;;;;;;;23.23;43.80;97420.41;5047977;28;20264;-60
2021/05/04 11:17:07;;;;;;;2.45;0.75;;;;;;;23.24;43.01;97438.06;5044329;28;20228;-58
2021/05/04 11:19:36;;;;;;;2.50;0.70;;;;;;;23.23;43.87;97442.59;5052811;28;20199;-61
2021/05/04 11:22:08;;;;;;;3.55;0.93;;;;;;;23.23;44.15;97425.72;5048581;28;20603;-59
2021/05/04 11:24:54;;;;;;;3.72;0.80;;;;;;;23.24;43.97;97438.06;5046804;28;20264;-57
2021/05/04 11:27:23;;;;;;;3.78;0.80;;;;;;;23.26;43.65;97430.69;5048685;28;20223;-60
2021/05/04 11:29:51;;;;;;;1.40;0.88;;;;;;;23.27;43.62;97422.50;5043613;28;20291;-60
2021/05/04 11:32:19;;;;;;;1.95;0.73;;;;;;;23.28;43.85;97412.66;5043098;28;20556;-61
2021/05/04 11:34:47;;;;;;;1.58;0.90;;;;;;;23.28;43.86;97428.66;5054080;28;20198;-59
2021/05/04 11:37:35;;;;;;;1.13;0.88;;;;;;;23.28;43.41;97456.16;5046521;28;20419;-60